sensor_id;sensor_type;location;lat;lon;timestamp;pressure;altitude;pressure_sealevel;temperature;humidity
61554;BME280;47425;51.976;5.326;2023-02-12T00:01:51;103699.31;;;14.69;48.19
61554;BME280;47425;51.976;5.326;2023-02-12T00:04:34;103694.94;;;14.69;48.09
61554;BME280;47425;51.976;5.326;2023-02-12T00:07:19;103701.94;;;14.67;47.85
61554;BME280;47425;51.976;5.326;2023-02-12T00:09:51;103701.69;;;14.41;47.35
61554;BME280;47425;51.976;5.326;2023-02-12T00:12:29;103695.97;;;13.98;48.37
61554;BME280;47425;51.976;5.326;2023-02-12T00:15:18;103694.06;;;13.84;49.60
61554;BME280;47425;51.976;5.326;2023-02-12T00:17:55;103698.66;;;14.04;49.71
61554;BME280;47425;51.976;5.326;2023-02-12T00:20:41;103692.56;;;14.08;48.67
61554;BME280;47425;51.976;5.326;2023-02-12T00:23:10;103701.22;;;13.96;49.08
61554;BME280;47425;51.976;5.326;2023-02-12T00:25:57;103701.31;;;14.05;49.82
61554;BME280;47425;51.976;5.326;2023-02-12T00:28:33;103702.50;;;14.35;49.10
61554;BME280;47425;51.976;5.326;2023-02-12T00:31:14;103698.31;;;14.54;48.97
61554;BME280;47425;51.976;5.326;2023-02-12T00:33:49;103690.53;;;14.67;48.47
61554;BME280;47425;51.976;5.326;2023-02-12T00:36:25;103696.53;;;14.53;47.85
61554;BME280;47425;51.976;5.326;2023-02-12T00:39:15;103696.66;;;13.83;48.05
61554;BME280;47425;51.976;5.326;2023-02-12T00:41:50;103695.13;;;13.33;50.18
61554;BME280;47425;51.976;5.326;2023-02-12T00:44:18;103703.19;;;13.40;50.34
61554;BME280;47425;51.976;5.326;2023-02-12T00:47:02;103706.13;;;13.65;50.85
61554;BME280;47425;51.976;5.326;2023-02-12T00:49:49;103697.69;;;13.94;49.42
61554;BME280;47425;51.976;5.326;2023-02-12T00:52:17;103708.75;;;13.65;49.36
61554;BME280;47425;51.976;5.326;2023-02-12T00:55:11;103700.09;;;13.13;49.97
61554;BME280;47425;51.976;5.326;2023-02-12T00:57:39;103693.38;;;12.73;50.62
61554;BME280;47425;51.976;5.326;2023-02-12T01:00:33;103690.72;;;12.72;52.35
61554;BME280;47425;51.976;5.326;2023-02-12T01:03:11;103695.50;;;12.98;51.49
61554;BME280;47425;51.976;5.326;2023-02-12T01:05:58;103697.22;;;12.97;50.88
61554;BME280;47425;51.976;5.326;2023-02-12T01:08:34;103695.41;;;12.91;51.23
61554;BME280;47425;51.976;5.326;2023-02-12T01:11:18;103696.19;;;12.86;51.17
61554;BME280;47425;51.976;5.326;2023-02-12T01:13:56;103698.81;;;12.86;52.16
61554;BME280;47425;51.976;5.326;2023-02-12T01:16:27;103694.81;;;13.11;52.06
61554;BME280;47425;51.976;5.326;2023-02-12T01:19:06;103688.06;;;13.29;50.74
61554;BME280;47425;51.976;5.326;2023-02-12T01:21:43;103700.53;;;13.39;50.96
61554;BME280;47425;51.976;5.326;2023-02-12T01:24:17;103696.16;;;13.41;50.22
61554;BME280;47425;51.976;5.326;2023-02-12T01:29:51;103691.00;;;13.50;50.85
61554;BME280;47425;51.976;5.326;2023-02-12T01:32:23;103693.06;;;13.73;51.37
61554;BME280;47425;51.976;5.326;2023-02-12T01:35:25;103696.91;;;14.04;51.00
61554;BME280;47425;51.976;5.326;2023-02-12T01:37:57;103682.31;;;14.37;49.95
61554;BME280;47425;51.976;5.326;2023-02-12T01:40:25;103682.63;;;14.68;49.23
61554;BME280;47425;51.976;5.326;2023-02-12T01:42:52;103690.69;;;14.93;49.02
61554;BME280;47425;51.976;5.326;2023-02-12T01:48:35;103690.94;;;15.35;47.81
61554;BME280;47425;51.976;5.326;2023-02-12T01:51:05;103684.84;;;15.47;47.51
61554;BME280;47425;51.976;5.326;2023-02-12T01:54:07;103691.09;;;15.59;47.64
61554;BME280;47425;51.976;5.326;2023-02-12T01:56:51;103681.41;;;15.63;47.08
61554;BME280;47425;51.976;5.326;2023-02-12T01:59:26;103689.25;;;15.49;47.09
61554;BME280;47425;51.976;5.326;2023-02-12T02:02:03;103683.13;;;15.49;46.93
61554;BME280;47425;51.976;5.326;2023-02-12T02:04:32;103699.00;;;15.59;46.94
61554;BME280;47425;51.976;5.326;2023-02-12T02:07:17;103691.13;;;15.67;46.85
61554;BME280;47425;51.976;5.326;2023-02-12T02:10:00;103689.41;;;15.80;46.63
61554;BME280;47425;51.976;5.326;2023-02-12T02:12:29;103687.69;;;15.88;46.05
61554;BME280;47425;51.976;5.326;2023-02-12T02:18:40;103695.66;;;16.01;45.99
61554;BME280;47425;51.976;5.326;2023-02-12T02:22:19;103674.50;;;16.05;45.63
61554;BME280;47425;51.976;5.326;2023-02-12T02:25:31;103684.16;;;15.92;46.27
61554;BME280;47425;51.976;5.326;2023-02-12T02:29:29;103682.38;;;15.81;46.16
61554;BME280;47425;51.976;5.326;2023-02-12T02:31:25;103682.28;;;15.60;46.40
61554;BME280;47425;51.976;5.326;2023-02-12T02:34:08;103687.47;;;15.43;45.50
61554;BME280;47425;51.976;5.326;2023-02-12T02:36:45;103689.09;;;15.17;45.75
61554;BME280;47425;51.976;5.326;2023-02-12T02:39:42;103678.34;;;14.86;45.86
61554;BME280;47425;51.976;5.326;2023-02-12T02:42:25;103675.28;;;14.39;46.52
61554;BME280;47425;51.976;5.326;2023-02-12T02:45:00;103675.78;;;13.98;47.08
61554;BME280;47425;51.976;5.326;2023-02-12T02:48:16;103676.47;;;13.82;48.13
61554;BME280;47425;51.976;5.326;2023-02-12T02:51:20;103672.31;;;14.02;49.22
61554;BME280;47425;51.976;5.326;2023-02-12T02:53:53;103672.59;;;14.32;49.21
61554;BME280;47425;51.976;5.326;2023-02-12T02:56:30;103668.38;;;14.49;48.07
61554;BME280;47425;51.976;5.326;2023-02-12T02:59:20;103670.28;;;14.64;48.69
61554;BME280;47425;51.976;5.326;2023-02-12T03:01:53;103673.91;;;14.82;48.02
61554;BME280;47425;51.976;5.326;2023-02-12T03:04:30;103675.75;;;14.92;47.84
61554;BME280;47425;51.976;5.326;2023-02-12T03:07:09;103669.66;;;15.02;47.53
61554;BME280;47425;51.976;5.326;2023-02-12T03:09:53;103651.13;;;14.93;47.57
61554;BME280;47425;51.976;5.326;2023-02-12T03:12:35;103665.22;;;14.97;47.88
61554;BME280;47425;51.976;5.326;2023-02-12T03:15:08;103652.81;;;14.83;47.16
61554;BME280;47425;51.976;5.326;2023-02-12T03:17:40;103657.25;;;14.90;47.95
61554;BME280;47425;51.976;5.326;2023-02-12T03:21:00;103652.94;;;15.02;47.80
61554;BME280;47425;51.976;5.326;2023-02-12T03:24:01;103663.63;;;15.28;47.41
61554;BME280;47425;51.976;5.326;2023-02-12T03:26:45;103660.22;;;15.44;47.11
61554;BME280;47425;51.976;5.326;2023-02-12T03:29:16;103654.97;;;15.57;46.78
61554;BME280;47425;51.976;5.326;2023-02-12T03:31:53;103662.06;;;15.69;46.45
61554;BME280;47425;51.976;5.326;2023-02-12T03:34:29;103656.78;;;15.69;46.31
61554;BME280;47425;51.976;5.326;2023-02-12T03:37:26;103662.03;;;15.64;46.63
61554;BME280;47425;51.976;5.326;2023-02-12T03:40:14;103664.69;;;15.73;45.81
61554;BME280;47425;51.976;5.326;2023-02-12T03:42:50;103670.03;;;15.80;46.04
61554;BME280;47425;51.976;5.326;2023-02-12T03:45:39;103664.75;;;15.84;46.30
61554;BME280;47425;51.976;5.326;2023-02-12T03:48:24;103668.34;;;15.94;45.92
61554;BME280;47425;51.976;5.326;2023-02-12T03:51:13;103668.31;;;16.02;45.62
61554;BME280;47425;51.976;5.326;2023-02-12T03:53:52;103672.75;;;16.12;45.49
61554;BME280;47425;51.976;5.326;2023-02-12T03:56:33;103675.38;;;16.01;45.41
61554;BME280;47425;51.976;5.326;2023-02-12T03:59:08;103651.50;;;15.73;45.61
61554;BME280;47425;51.976;5.326;2023-02-12T04:02:02;103674.41;;;15.71;45.76
61554;BME280;47425;51.976;5.326;2023-02-12T04:05:03;103679.69;;;15.74;46.28
61554;BME280;47425;51.976;5.326;2023-02-12T04:07:37;103680.66;;;15.87;45.99
61554;BME280;47425;51.976;5.326;2023-02-12T04:10:17;103678.91;;;15.94;45.68
61554;BME280;47425;51.976;5.326;2023-02-12T04:13:09;103680.66;;;15.95;45.32
61554;BME280;47425;51.976;5.326;2023-02-12T04:16:06;103684.16;;;15.89;45.53
61554;BME280;47425;51.976;5.326;2023-02-12T04:19:21;103691.22;;;15.87;45.95
61554;BME280;47425;51.976;5.326;2023-02-12T04:22:09;103688.56;;;15.93;45.41
61554;BME280;47425;51.976;5.326;2023-02-12T04:25:34;103694.78;;;16.09;45.33
61554;BME280;47425;51.976;5.326;2023-02-12T04:28:18;103700.09;;;16.20;45.18
61554;BME280;47425;51.976;5.326;2023-02-12T04:31:04;103686.00;;;16.24;45.27
61554;BME280;47425;51.976;5.326;2023-02-12T04:33:41;103699.22;;;16.46;44.87
61554;BME280;47425;51.976;5.326;2023-02-12T04:36:15;103708.06;;;16.37;44.57
61554;BME280;47425;51.976;5.326;2023-02-12T04:39:03;103703.63;;;16.27;44.60
61554;BME280;47425;51.976;5.326;2023-02-12T04:42:08;103704.47;;;16.15;45.15
61554;BME280;47425;51.976;5.326;2023-02-12T04:44:38;103700.97;;;16.12;45.18
61554;BME280;47425;51.976;5.326;2023-02-12T04:47:11;103704.47;;;16.06;44.91
61554;BME280;47425;51.976;5.326;2023-02-12T04:49:40;103709.75;;;16.04;45.20
61554;BME280;47425;51.976;5.326;2023-02-12T04:52:21;103706.22;;;16.07;45.49
61554;BME280;47425;51.976;5.326;2023-02-12T04:54:57;103712.41;;;16.17;45.12
61554;BME280;47425;51.976;5.326;2023-02-12T05:00:17;103719.50;;;16.36;44.19
61554;BME280;47425;51.976;5.326;2023-02-12T05:02:52;103713.31;;;16.22;43.51
61554;BME280;47425;51.976;5.326;2023-02-12T05:05:20;103718.56;;;15.97;44.99
61554;BME280;47425;51.976;5.326;2023-02-12T05:07:55;103712.38;;;15.87;44.78
61554;BME280;47425;51.976;5.326;2023-02-12T05:10:35;103714.91;;;15.67;45.80
61554;BME280;47425;51.976;5.326;2023-02-12T05:13:05;103718.41;;;15.63;45.60
61554;BME280;47425;51.976;5.326;2023-02-12T05:15:37;103716.63;;;15.64;45.32
61554;BME280;47425;51.976;5.326;2023-02-12T05:18:22;103718.31;;;15.52;45.51
61554;BME280;47425;51.976;5.326;2023-02-12T05:20:54;103708.56;;;15.39;45.77
61554;BME280;47425;51.976;5.326;2023-02-12T05:23:29;103710.22;;;15.21;46.00
61554;BME280;47425;51.976;5.326;2023-02-12T05:28:06;103692.47;;;14.97;46.67
61554;BME280;47425;51.976;5.326;2023-02-12T05:29:43;103708.38;;;15.03;46.90
61554;BME280;47425;51.976;5.326;2023-02-12T05:32:33;103709.28;;;15.08;45.99
61554;BME280;47425;51.976;5.326;2023-02-12T05:35:06;103711.06;;;15.14;45.62
61554;BME280;47425;51.976;5.326;2023-02-12T05:37:44;103713.75;;;15.19;45.78
61554;BME280;47425;51.976;5.326;2023-02-12T05:40:37;103714.63;;;15.21;45.58
61554;BME280;47425;51.976;5.326;2023-02-12T05:43:12;103720.56;;;14.89;44.82
61554;BME280;47425;51.976;5.326;2023-02-12T05:45:45;103709.72;;;14.53;46.60
61554;BME280;47425;51.976;5.326;2023-02-12T05:50:29;103720.19;;;14.46;46.90
61554;BME280;47425;51.976;5.326;2023-02-12T05:51:25;103721.84;;;14.34;45.97
61554;BME280;47425;51.976;5.326;2023-02-12T05:54:06;103718.09;;;14.12;46.51
61554;BME280;47425;51.976;5.326;2023-02-12T05:56:43;103724.94;;;13.98;46.32
61554;BME280;47425;51.976;5.326;2023-02-12T05:59:21;103722.00;;;13.71;46.74
61554;BME280;47425;51.976;5.326;2023-02-12T06:01:53;103721.81;;;13.57;47.43
61554;BME280;47425;51.976;5.326;2023-02-12T06:04:32;103722.47;;;13.39;47.40
61554;BME280;47425;51.976;5.326;2023-02-12T06:07:03;103723.31;;;13.38;49.05
61554;BME280;47425;51.976;5.326;2023-02-12T06:09:38;103716.59;;;13.59;48.06
61554;BME280;47425;51.976;5.326;2023-02-12T06:12:18;103721.94;;;13.67;47.86
61554;BME280;47425;51.976;5.326;2023-02-12T06:15:01;103721.03;;;13.65;48.15
61554;BME280;47425;51.976;5.326;2023-02-12T06:17:36;103718.53;;;13.72;48.72
61554;BME280;47425;51.976;5.326;2023-02-12T06:20:09;103708.25;;;13.96;48.76
61554;BME280;47425;51.976;5.326;2023-02-12T06:23:10;103719.97;;;14.22;48.33
61554;BME280;47425;51.976;5.326;2023-02-12T06:26:02;103723.56;;;14.34;48.55
61554;BME280;47425;51.976;5.326;2023-02-12T06:28:41;103719.41;;;14.57;48.28
61554;BME280;47425;51.976;5.326;2023-02-12T06:31:37;103723.97;;;14.75;47.90
61554;BME280;47425;51.976;5.326;2023-02-12T06:34:34;103725.91;;;14.97;47.50
61554;BME280;47425;51.976;5.326;2023-02-12T06:37:04;103725.16;;;15.13;47.49
61554;BME280;47425;51.976;5.326;2023-02-12T06:39:36;103729.56;;;15.16;46.45
61554;BME280;47425;51.976;5.326;2023-02-12T06:42:04;103735.69;;;15.12;45.97
61554;BME280;47425;51.976;5.326;2023-02-12T06:44:39;103734.75;;;14.99;45.47
61554;BME280;47425;51.976;5.326;2023-02-12T06:47:09;103720.28;;;14.58;46.31
61554;BME280;47425;51.976;5.326;2023-02-12T06:53:08;103728.25;;;14.63;46.60
61554;BME280;47425;51.976;5.326;2023-02-12T06:55:40;103731.03;;;14.73;47.53
61554;BME280;47425;51.976;5.326;2023-02-12T06:58:36;103734.63;;;14.85;47.60
61554;BME280;47425;51.976;5.326;2023-02-12T07:01:22;103733.81;;;14.95;47.59
61554;BME280;47425;51.976;5.326;2023-02-12T07:04:00;103737.47;;;15.16;46.54
61554;BME280;47425;51.976;5.326;2023-02-12T07:06:34;103739.09;;;14.92;46.67
61554;BME280;47425;51.976;5.326;2023-02-12T07:09:05;103742.53;;;14.85;47.60
61554;BME280;47425;51.976;5.326;2023-02-12T07:11:37;103747.97;;;15.05;47.25
61554;BME280;47425;51.976;5.326;2023-02-12T07:14:26;103744.53;;;15.17;47.01
61554;BME280;47425;51.976;5.326;2023-02-12T07:16:53;103748.97;;;15.24;46.91
61554;BME280;47425;51.976;5.326;2023-02-12T07:19:23;103755.22;;;15.34;46.37
61554;BME280;47425;51.976;5.326;2023-02-12T07:22:10;103756.06;;;15.30;45.86
61554;BME280;47425;51.976;5.326;2023-02-12T07:24:58;103757.72;;;15.12;46.54
61554;BME280;47425;51.976;5.326;2023-02-12T07:27:35;103752.38;;;15.09;45.92
61554;BME280;47425;51.976;5.326;2023-02-12T07:30:06;103760.38;;;15.14;46.57
61554;BME280;47425;51.976;5.326;2023-02-12T07:32:49;103768.34;;;15.24;46.61
61554;BME280;47425;51.976;5.326;2023-02-12T07:35:18;103770.22;;;15.42;46.59
61554;BME280;47425;51.976;5.326;2023-02-12T07:37:44;103762.34;;;15.50;46.10
61554;BME280;47425;51.976;5.326;2023-02-12T07:40:18;103761.47;;;15.51;46.25
61554;BME280;47425;51.976;5.326;2023-02-12T07:42:46;103773.03;;;15.69;45.93
61554;BME280;47425;51.976;5.326;2023-02-12T07:45:21;103773.94;;;15.78;45.91
61554;BME280;47425;51.976;5.326;2023-02-12T07:47:58;103775.78;;;15.87;45.43
61554;BME280;47425;51.976;5.326;2023-02-12T07:50:46;103778.44;;;15.90;45.80
61554;BME280;47425;51.976;5.326;2023-02-12T07:53:14;103778.47;;;16.04;44.89
61554;BME280;47425;51.976;5.326;2023-02-12T07:56:04;103781.13;;;15.98;45.59
61554;BME280;47425;51.976;5.326;2023-02-12T07:58:34;103780.25;;;16.02;44.57
61554;BME280;47425;51.976;5.326;2023-02-12T08:01:13;103773.16;;;15.87;45.16
61554;BME280;47425;51.976;5.326;2023-02-12T08:03:49;103774.88;;;15.82;45.39
61554;BME280;47425;51.976;5.326;2023-02-12T08:06:27;103787.22;;;15.89;44.88
61554;BME280;47425;51.976;5.326;2023-02-12T08:09:21;103791.34;;;15.39;45.53
61554;BME280;47425;51.976;5.326;2023-02-12T08:11:49;103793.06;;;15.39;46.33
61554;BME280;47425;51.976;5.326;2023-02-12T08:14:20;103786.91;;;15.34;45.31
61554;BME280;47425;51.976;5.326;2023-02-12T08:16:50;103786.53;;;14.87;47.09
61554;BME280;47425;51.976;5.326;2023-02-12T08:19:32;103795.41;;;14.97;47.66
61554;BME280;47425;51.976;5.326;2023-02-12T08:22:06;103800.75;;;15.08;46.70
61554;BME280;47425;51.976;5.326;2023-02-12T08:24:39;103801.75;;;15.18;47.21
61554;BME280;47425;51.976;5.326;2023-02-12T08:27:25;103804.53;;;15.41;46.62
61554;BME280;47425;51.976;5.326;2023-02-12T08:30:06;103805.53;;;15.54;46.46
61554;BME280;47425;51.976;5.326;2023-02-12T08:32:49;103804.72;;;15.70;46.45
61554;BME280;47425;51.976;5.326;2023-02-12T08:35:21;103813.66;;;15.83;45.84
61554;BME280;47425;51.976;5.326;2023-02-12T08:37:55;103815.44;;;15.92;45.80
61554;BME280;47425;51.976;5.326;2023-02-12T08:40:30;103810.06;;;15.78;45.42
61554;BME280;47425;51.976;5.326;2023-02-12T08:43:05;103818.84;;;15.78;46.13
61554;BME280;47425;51.976;5.326;2023-02-12T08:45:33;103813.66;;;15.92;46.12
61554;BME280;47425;51.976;5.326;2023-02-12T08:48:09;103823.41;;;16.03;45.92
61554;BME280;47425;51.976;5.326;2023-02-12T08:50:43;103814.63;;;16.08;45.31
61554;BME280;47425;51.976;5.326;2023-02-12T08:53:21;103819.03;;;16.06;45.63
61554;BME280;47425;51.976;5.326;2023-02-12T08:56:00;103815.47;;;16.03;44.45
61554;BME280;47425;51.976;5.326;2023-02-12T08:58:40;103822.44;;;15.85;45.40
61554;BME280;47425;51.976;5.326;2023-02-12T09:01:15;103825.97;;;15.81;45.97
61554;BME280;47425;51.976;5.326;2023-02-12T09:03:50;103832.88;;;15.64;46.00
61554;BME280;47425;51.976;5.326;2023-02-12T09:06:48;103777.28;;;15.45;46.40
61554;BME280;47425;51.976;5.326;2023-02-12T09:09:44;103828.66;;;15.95;46.37
61554;BME280;47425;51.976;5.326;2023-02-12T09:12:21;103833.13;;;16.10;46.15
61554;BME280;47425;51.976;5.326;2023-02-12T09:14:49;103836.72;;;16.20;45.93
61554;BME280;47425;51.976;5.326;2023-02-12T09:17:23;103842.94;;;16.36;45.96
61554;BME280;47425;51.976;5.326;2023-02-12T09:19:56;103835.91;;;16.50;45.77
61554;BME280;47425;51.976;5.326;2023-02-12T09:22:26;103833.31;;;16.66;45.42
61554;BME280;47425;51.976;5.326;2023-02-12T09:25:03;103835.97;;;16.81;45.48
61554;BME280;47425;51.976;5.326;2023-02-12T09:27:34;103831.63;;;16.94;45.20
61554;BME280;47425;51.976;5.326;2023-02-12T09:30:05;103840.44;;;17.10;44.70
61554;BME280;47425;51.976;5.326;2023-02-12T09:32:41;103835.13;;;17.15;44.90
61554;BME280;47425;51.976;5.326;2023-02-12T09:37:54;103837.78;;;17.38;44.47
61554;BME280;47425;51.976;5.326;2023-02-12T09:40:24;103843.97;;;17.48;44.37
61554;BME280;47425;51.976;5.326;2023-02-12T09:43:06;103835.13;;;17.58;44.13
61554;BME280;47425;51.976;5.326;2023-02-12T09:45:52;103843.03;;;17.69;43.96
61554;BME280;47425;51.976;5.326;2023-02-12T09:48:43;103830.69;;;17.66;43.63
61554;BME280;47425;51.976;5.326;2023-02-12T09:51:30;103842.13;;;17.70;43.48
61554;BME280;47425;51.976;5.326;2023-02-12T09:54:02;103843.03;;;17.70;42.66
61554;BME280;47425;51.976;5.326;2023-02-12T09:56:39;103846.56;;;17.66;43.32
61554;BME280;47425;51.976;5.326;2023-02-12T09:59:15;103848.34;;;17.70;43.21
61554;BME280;47425;51.976;5.326;2023-02-12T10:01:58;103843.00;;;17.76;43.24
61554;BME280;47425;51.976;5.326;2023-02-12T10:04:29;103849.19;;;17.77;43.05
61554;BME280;47425;51.976;5.326;2023-02-12T10:07:04;103830.66;;;17.74;43.17
61554;BME280;47425;51.976;5.326;2023-02-12T10:10:02;103848.31;;;17.78;42.84
61554;BME280;47425;51.976;5.326;2023-02-12T10:12:36;103841.25;;;17.78;42.78
61554;BME280;47425;51.976;5.326;2023-02-12T10:15:29;103829.78;;;17.70;42.88
61554;BME280;47425;51.976;5.326;2023-02-12T10:18:20;103845.66;;;17.78;42.96
61554;BME280;47425;51.976;5.326;2023-02-12T10:21:14;103835.94;;;17.77;43.02
61554;BME280;47425;51.976;5.326;2023-02-12T10:24:11;103847.41;;;17.81;43.02
61554;BME280;47425;51.976;5.326;2023-02-12T10:27:12;103847.41;;;17.84;42.87
61554;BME280;47425;51.976;5.326;2023-02-12T10:29:45;103849.16;;;17.88;42.83
61554;BME280;47425;51.976;5.326;2023-02-12T10:32:25;103842.09;;;17.81;42.90
61554;BME280;47425;51.976;5.326;2023-02-12T10:35:00;103843.91;;;17.77;43.02
61554;BME280;47425;51.976;5.326;2023-02-12T10:37:42;103839.47;;;17.79;42.96
61554;BME280;47425;51.976;5.326;2023-02-12T10:40:28;103845.66;;;17.83;42.92
61554;BME280;47425;51.976;5.326;2023-02-12T10:43:00;103850.91;;;17.87;42.96
61554;BME280;47425;51.976;5.326;2023-02-12T10:45:35;103845.66;;;17.92;42.94
61554;BME280;47425;51.976;5.326;2023-02-12T10:48:19;103843.84;;;17.89;42.77
61554;BME280;47425;51.976;5.326;2023-02-12T10:51:01;103847.38;;;17.88;42.69
61554;BME280;47425;51.976;5.326;2023-02-12T10:53:43;103843.88;;;17.88;42.53
61554;BME280;47425;51.976;5.326;2023-02-12T10:56:26;103835.03;;;17.89;42.61
61554;BME280;47425;51.976;5.326;2023-02-12T10:59:21;103837.69;;;17.92;42.51
61554;BME280;47425;51.976;5.326;2023-02-12T11:01:51;103837.69;;;17.92;42.33
61554;BME280;47425;51.976;5.326;2023-02-12T11:04:29;103839.44;;;17.91;42.44
61554;BME280;47425;51.976;5.326;2023-02-12T11:07:07;103835.03;;;17.90;42.69
61554;BME280;47425;51.976;5.326;2023-02-12T11:09:37;103840.31;;;17.97;42.46
61554;BME280;47425;51.976;5.326;2023-02-12T11:12:30;103843.88;;;17.97;42.47
61554;BME280;47425;51.976;5.326;2023-02-12T11:15:02;103842.09;;;17.98;42.44
61554;BME280;47425;51.976;5.326;2023-02-12T11:17:37;103846.53;;;17.97;42.44
61554;BME280;47425;51.976;5.326;2023-02-12T11:20:32;103842.09;;;17.98;42.52
61554;BME280;47425;51.976;5.326;2023-02-12T11:23:04;103829.72;;;18.01;42.44
61554;BME280;47425;51.976;5.326;2023-02-12T11:25:57;103835.91;;;18.00;42.65
61554;BME280;47425;51.976;5.326;2023-02-12T11:28:32;103833.25;;;18.00;42.56
61554;BME280;47425;51.976;5.326;2023-02-12T11:31:27;103836.81;;;17.94;42.99
61554;BME280;47425;51.976;5.326;2023-02-12T11:34:14;103831.47;;;18.01;42.62
61554;BME280;47425;51.976;5.326;2023-02-12T11:36:50;103835.00;;;18.03;42.50
61554;BME280;47425;51.976;5.326;2023-02-12T11:39:26;103830.59;;;18.06;42.66
61554;BME280;47425;51.976;5.326;2023-02-12T11:42:04;103831.44;;;18.10;42.31
61554;BME280;47425;51.976;5.326;2023-02-12T11:44:56;103833.19;;;18.11;41.93
61554;BME280;47425;51.976;5.326;2023-02-12T11:47:55;103830.59;;;18.06;42.28
61554;BME280;47425;51.976;5.326;2023-02-12T11:50:48;103826.16;;;18.07;42.38
61554;BME280;47425;51.976;5.326;2023-02-12T11:53:20;103827.91;;;18.08;42.65
61554;BME280;47425;51.976;5.326;2023-02-12T11:55:59;103833.22;;;18.09;42.36
61554;BME280;47425;51.976;5.326;2023-02-12T11:58:43;103821.69;;;18.15;42.61
61554;BME280;47425;51.976;5.326;2023-02-12T12:01:18;103821.69;;;18.14;42.28
61554;BME280;47425;51.976;5.326;2023-02-12T12:04:07;103814.66;;;18.09;42.05
61554;BME280;47425;51.976;5.326;2023-02-12T12:06:51;103822.56;;;18.14;42.14
61554;BME280;47425;51.976;5.326;2023-02-12T12:09:41;103820.81;;;18.08;42.52
61554;BME280;47425;51.976;5.326;2023-02-12T12:12:35;103817.34;;;18.05;42.53
61554;BME280;47425;51.976;5.326;2023-02-12T12:15:11;103816.47;;;18.00;42.56
61554;BME280;47425;51.976;5.326;2023-02-12T12:18:32;103813.81;;;17.90;42.83
61554;BME280;47425;51.976;5.326;2023-02-12T12:21:24;103815.56;;;17.90;41.96
61554;BME280;47425;51.976;5.326;2023-02-12T12:23:59;103804.97;;;17.90;42.83
61554;BME280;47425;51.976;5.326;2023-02-12T12:26:49;103802.31;;;17.90;42.51
61554;BME280;47425;51.976;5.326;2023-02-12T12:30:13;103797.03;;;17.94;42.75
61554;BME280;47425;51.976;5.326;2023-02-12T12:32:50;103797.03;;;17.96;42.46
61554;BME280;47425;51.976;5.326;2023-02-12T12:35:46;103792.59;;;17.97;42.78
61554;BME280;47425;51.976;5.326;2023-02-12T12:38:31;103791.72;;;17.98;42.56
61554;BME280;47425;51.976;5.326;2023-02-12T12:41:21;103790.84;;;17.97;42.79
61554;BME280;47425;51.976;5.326;2023-02-12T12:44:15;103784.66;;;17.98;42.57
61554;BME280;47425;51.976;5.326;2023-02-12T12:47:26;103788.19;;;17.97;42.70
61554;BME280;47425;51.976;5.326;2023-02-12T12:50:27;103784.66;;;17.92;42.57
61554;BME280;47425;51.976;5.326;2023-02-12T12:53:48;103783.78;;;17.87;42.72
61554;BME280;47425;51.976;5.326;2023-02-12T12:56:40;103779.34;;;17.87;42.77
61554;BME280;47425;51.976;5.326;2023-02-12T12:59:46;103779.34;;;17.89;42.66
61554;BME280;47425;51.976;5.326;2023-02-12T13:02:48;103772.28;;;17.88;42.33
61554;BME280;47425;51.976;5.326;2023-02-12T13:08:58;103775.84;;;17.77;42.89
61554;BME280;47425;51.976;5.326;2023-02-12T13:11:41;103770.56;;;17.70;42.94
61554;BME280;47425;51.976;5.326;2023-02-12T13:14:37;103762.63;;;17.68;43.00
61554;BME280;47425;51.976;5.326;2023-02-12T13:17:42;103768.81;;;17.72;42.89
61554;BME280;47425;51.976;5.326;2023-02-12T13:20:19;103760.88;;;17.70;42.87
61554;BME280;47425;51.976;5.326;2023-02-12T13:23:14;103764.41;;;17.69;42.96
61554;BME280;47425;51.976;5.326;2023-02-12T13:25:51;103753.78;;;17.72;42.75
61554;BME280;47425;51.976;5.326;2023-02-12T13:28:42;103761.75;;;17.68;43.02
61554;BME280;47425;51.976;5.326;2023-02-12T13:31:25;103759.97;;;17.70;42.95
61554;BME280;47425;51.976;5.326;2023-02-12T13:34:01;103745.88;;;17.61;42.51
61554;BME280;47425;51.976;5.326;2023-02-12T13:36:47;103752.09;;;17.60;42.77
61554;BME280;47425;51.976;5.326;2023-02-12T13:39:26;103760.88;;;17.64;42.99
61554;BME280;47425;51.976;5.326;2023-02-12T13:42:14;103760.88;;;17.66;43.01
61554;BME280;47425;51.976;5.326;2023-02-12T13:45:18;103756.47;;;17.66;43.19
61554;BME280;47425;51.976;5.326;2023-02-12T13:51:11;103746.84;;;17.40;42.56
61554;BME280;47425;51.976;5.326;2023-02-12T13:53:54;103752.16;;;17.25;41.85
61554;BME280;47425;51.976;5.326;2023-02-12T13:56:47;103746.88;;;17.14;42.04
61554;BME280;47425;51.976;5.326;2023-02-12T13:59:45;103744.25;;;16.82;41.58
61554;BME280;47425;51.976;5.326;2023-02-12T14:02:45;103737.81;;;15.79;40.97
61554;BME280;47425;51.976;5.326;2023-02-12T14:05:38;103739.44;;;15.43;43.44
61554;BME280;47425;51.976;5.326;2023-02-12T14:08:33;103724.41;;;15.31;43.27
61554;BME280;47425;51.976;5.326;2023-02-12T14:11:19;103708.50;;;15.25;45.41
61554;BME280;47425;51.976;5.326;2023-02-12T14:13:54;103725.31;;;15.42;43.54
61554;BME280;47425;51.976;5.326;2023-02-12T14:16:43;103721.81;;;15.42;44.56
61554;BME280;47425;51.976;5.326;2023-02-12T14:19:53;103728.97;;;15.63;45.77
61554;BME280;47425;51.976;5.326;2023-02-12T14:22:58;103713.94;;;15.54;44.19
61554;BME280;47425;51.976;5.326;2023-02-12T14:25:36;103716.47;;;15.34;43.17
61554;BME280;47425;51.976;5.326;2023-02-12T14:28:51;103713.88;;;15.43;45.35
61554;BME280;47425;51.976;5.326;2023-02-12T14:31:44;103714.84;;;15.61;45.22
61554;BME280;47425;51.976;5.326;2023-02-12T14:34:39;103715.75;;;15.63;43.10
61554;BME280;47425;51.976;5.326;2023-02-12T14:40:38;103715.69;;;15.49;45.00